createdAt,value
2023-07-01T05:00:34.268Z,22.83
2023-07-01T05:03:21.131Z,22.11
2023-07-01T05:06:07.189Z,21.93
2023-07-01T05:08:54.412Z,22.58
2023-07-01T05:11:41.078Z,22.34
2023-07-01T05:14:27.523Z,22.75
2023-07-01T06:15:39.696Z,23.30
2023-07-01T06:18:26.206Z,23.28
2023-07-01T06:21:12.808Z,23.00
2023-07-01T06:23:59.338Z,23.19
2023-07-01T06:26:45.777Z,23.43
2023-07-01T06:29:32.923Z,22.27
2023-07-01T06:32:20.599Z,22.92
2023-07-01T06:35:07.233Z,23.11
2023-07-01T06:37:53.564Z,22.88
2023-07-01T06:40:39.910Z,22.51
2023-07-01T06:43:26.522Z,23.07
2023-07-01T06:46:13.290Z,23.44
2023-07-01T06:49:01.502Z,23.13
2023-07-01T06:51:47.972Z,23.92
2023-07-01T06:54:34.451Z,24.09
2023-07-01T06:57:21.215Z,23.28
2023-07-01T07:00:10.237Z,23.56
2023-07-01T07:02:57.124Z,23.55
2023-07-01T07:05:45.395Z,24.05
2023-07-01T07:08:31.925Z,23.17
2023-07-01T07:11:18.517Z,23.03
2023-07-01T07:14:05.151Z,23.64
2023-07-01T07:16:51.805Z,22.79
2023-07-01T07:19:38.700Z,23.04
2023-07-01T07:22:26.142Z,23.16
2023-07-01T07:25:16.536Z,23.39
2023-07-01T07:28:03.911Z,23.37
2023-07-01T07:30:50.780Z,23.49
2023-07-01T07:33:37.850Z,24.24
2023-07-01T07:36:24.268Z,24.18
2023-07-01T07:39:13.365Z,24.68
2023-07-01T07:41:59.614Z,24.77
2023-07-01T07:44:45.796Z,24.15
2023-07-01T07:47:32.412Z,24.60
2023-07-01T07:50:23.467Z,24.55
2023-07-01T07:53:10.056Z,24.48
2023-07-01T07:55:57.747Z,24.92
2023-07-01T07:58:44.201Z,25.84
2023-07-01T08:01:30.970Z,25.10
2023-07-01T08:04:18.652Z,24.57
2023-07-01T08:07:05.597Z,24.46
2023-07-01T08:09:52.302Z,24.47
2023-07-01T08:12:40.051Z,24.67
2023-07-01T08:15:28.648Z,24.50
2023-07-01T08:18:15.942Z,24.51
2023-07-01T08:21:02.263Z,24.74
2023-07-01T08:23:48.291Z,24.90
2023-07-01T08:26:34.827Z,25.02
2023-07-01T08:29:25.286Z,24.78
2023-07-01T08:32:11.837Z,24.64
2023-07-01T09:18:24.554Z,26.33
2023-07-01T09:21:20.950Z,25.45
2023-07-01T09:24:10.646Z,26.03
2023-07-01T09:26:57.057Z,26.56
2023-07-01T09:29:43.905Z,25.81
2023-07-01T09:32:32.401Z,25.92
2023-07-01T10:00:41.433Z,25.24
2023-07-01T10:03:56.182Z,25.86
2023-07-01T10:06:46.190Z,25.30
2023-07-01T10:09:33.960Z,25.86
2023-07-01T10:12:21.178Z,26.31
2023-07-01T13:02:47.546Z,30.99
2023-07-01T13:05:36.183Z,31.51
2023-07-01T13:08:22.700Z,31.01
2023-07-01T13:11:15.087Z,30.20
2023-07-01T13:14:01.989Z,30.29
2023-07-01T13:16:48.698Z,28.97
2023-07-01T13:19:36.563Z,29.00
2023-07-01T13:22:22.712Z,28.72
2023-07-01T13:25:12.546Z,28.61
2023-07-01T13:28:02.314Z,29.21
2023-07-01T13:30:49.753Z,29.84
2023-07-01T13:33:38.364Z,29.30
2023-07-01T13:36:26.185Z,30.13
2023-07-01T13:39:21.556Z,29.90
2023-07-01T13:42:08.598Z,29.35
2023-07-01T13:44:56.542Z,30.23
2023-07-01T13:47:46.018Z,30.44
2023-07-01T13:50:33.879Z,31.22
2023-07-01T13:53:21.899Z,31.92
2023-07-01T13:56:08.637Z,30.36
2023-07-01T13:58:55.071Z,29.93
2023-07-01T14:01:41.119Z,30.60
2023-07-01T14:04:28.382Z,29.92
2023-07-01T14:07:17.609Z,29.87
2023-07-01T14:10:09.182Z,29.17
2023-07-01T14:12:56.116Z,29.00
2023-07-01T14:15:47.601Z,29.09
2023-07-01T14:18:36.919Z,29.48
2023-07-01T14:21:29.680Z,30.48
2023-07-01T14:24:41.264Z,29.38
2023-07-01T14:27:29.668Z,29.86
2023-07-01T14:30:16.894Z,30.81
2023-07-01T14:33:04.061Z,30.30
2023-07-01T14:35:54.457Z,31.13
2023-07-01T14:38:42.655Z,30.82
2023-07-01T14:41:55.385Z,31.04
2023-07-01T14:44:44.012Z,30.20
2023-07-01T14:47:33.335Z,31.51
2023-07-01T14:53:15.248Z,31.04
2023-07-01T14:56:01.930Z,32.40
2023-07-01T14:58:48.583Z,31.14
2023-07-01T15:01:37.824Z,31.05
2023-07-01T15:04:27.095Z,31.94
2023-07-01T15:07:18.445Z,31.95
2023-07-01T15:10:16.414Z,32.69
2023-07-01T15:13:05.800Z,32.20
2023-07-01T15:15:53.791Z,30.03
2023-07-01T15:18:44.701Z,30.81
2023-07-01T15:21:31.382Z,30.78
2023-07-01T15:24:20.615Z,30.61
2023-07-01T15:27:08.277Z,29.45
2023-07-01T15:29:55.807Z,30.80
2023-07-01T15:32:51.247Z,28.54
2023-07-01T15:35:40.761Z,29.30
2023-07-01T15:38:27.395Z,29.53
2023-07-01T15:44:30.830Z,31.32
2023-07-01T15:47:17.469Z,30.68
2023-07-01T15:50:04.102Z,30.25
2023-07-01T15:52:51.761Z,30.15
2023-07-01T15:55:38.460Z,30.98
2023-07-01T15:58:26.535Z,30.57
2023-07-01T16:01:13.334Z,29.11
2023-07-01T16:03:59.842Z,30.98
2023-07-01T16:06:47.716Z,32.09
2023-07-01T16:09:48.903Z,32.83
2023-07-01T16:13:00.681Z,30.39
2023-07-01T17:22:03.472Z,29.22
2023-07-01T17:24:50.116Z,29.37
2023-07-01T17:27:36.570Z,28.45
2023-07-01T17:30:22.733Z,28.32
2023-07-01T17:33:10.862Z,29.02
2023-07-01T17:36:25.807Z,27.90
2023-07-01T17:43:02.533Z,27.99
2023-07-01T17:55:09.332Z,27.45
2023-07-01T18:02:06.229Z,28.50
2023-07-01T18:05:12.532Z,28.14
2023-07-01T18:08:15.258Z,27.43
2023-07-01T18:16:23.472Z,27.03
2023-07-01T18:19:33.609Z,28.50
2023-07-01T18:27:16.092Z,28.61
2023-07-01T18:30:02.900Z,28.76
2023-07-01T18:33:07.306Z,29.92
2023-07-01T18:36:23.131Z,30.68
2023-07-01T18:42:38.973Z,28.74
2023-07-01T18:45:25.382Z,30.08
2023-07-01T18:48:14.285Z,29.52
2023-07-01T18:51:25.938Z,28.77
2023-07-01T18:54:12.612Z,28.31
2023-07-01T18:56:59.075Z,29.17
2023-07-01T18:59:45.697Z,29.88
2023-07-01T19:47:08.617Z,28.27
2023-07-01T19:49:55.236Z,27.73
2023-07-01T19:52:42.299Z,28.70
2023-07-01T19:55:28.914Z,28.62
2023-07-01T19:58:20.385Z,27.20
2023-07-01T22:02:38.434Z,27.42
2023-07-01T22:05:25.745Z,27.05
2023-07-01T22:08:12.082Z,27.17
2023-07-01T22:11:00.038Z,27.41
2023-07-01T22:13:46.774Z,27.03
